Time;durP1;ratioP1;P1;durP2;ratioP2;P2;SDS_P1;SDS_P2;PMS_P1;PMS_P2;Temp;Humidity;BMP_temperature;BMP_pressure;BME280_temperature;BME280_humidity;BME280_pressure;Samples;Min_cycle;Max_cycle;Signal;HPM_P1;HPM_P2
2023/03/15 00:00:16;;;;;;;5.73;5.07;;;;;;;;;;5115091;28;20442;-77
2023/03/15 00:03:03;;;;;;;5.90;5.20;;;;;;;;;;5114846;27;20617;-77
2023/03/15 00:05:36;;;;;;;6.33;5.73;;;;;;;;;;5106733;27;20478;-77
2023/03/15 00:08:08;;;;;;;6.63;6.00;;;;;;;;;;5113255;27;20461;-76
2023/03/15 00:10:44;;;;;;;6.17;5.57;;;;;;;;;;5110637;28;20435;-76
2023/03/15 00:13:18;;;;;;;6.70;6.00;;;;;;;;;;5113192;27;20461;-76
2023/03/15 00:15:50;;;;;;;6.10;5.50;;;;;;;;;;5113414;27;20466;-76
2023/03/15 00:18:21;;;;;;;7.10;6.40;;;;;;;;;;5113593;27;20934;-76
2023/03/15 00:20:57;;;;;;;6.30;5.80;;;;;;;;;;5112623;28;20407;-76
2023/03/15 00:23:41;;;;;;;6.70;4.87;;;;;;;;;;5112673;27;20505;-77
2023/03/15 00:26:15;;;;;;;6.50;5.83;;;;;;;;;;5113373;27;20481;-76
2023/03/15 00:29:00;;;;;;;6.30;5.70;;;;;;;;;;5114166;27;20470;-78
2023/03/15 00:31:51;;;;;;;6.97;6.13;;;;;;;;;;5113806;28;20793;-76
2023/03/15 00:34:37;;;;;;;6.40;5.80;;;;;;;;;;5113017;27;20463;-77
2023/03/15 00:37:11;;;;;;;9.37;6.83;;;;;;;;;;5113468;27;20447;-76
2023/03/15 00:39:47;;;;;;;11.20;7.00;;;;;;;;;;5114917;27;21029;-77
2023/03/15 00:42:34;;;;;;;7.40;6.20;;;;;;;;;;5114142;27;20511;-77
2023/03/15 00:45:02;;;;;;;7.33;6.10;;;;;;;;;;5113273;28;20455;-76
2023/03/15 00:47:44;;;;;;;7.60;5.97;;;;;;;;;;5112913;27;20446;-76
2023/03/15 00:50:20;;;;;;;6.93;6.10;;;;;;;;;;5113089;27;20450;-76
2023/03/15 00:53:07;;;;;;;5.87;5.27;;;;;;;;;;5113164;27;20450;-76
2023/03/15 00:55:47;;;;;;;10.93;6.20;;;;;;;;;;5113536;27;20483;-77
2023/03/15 00:58:25;;;;;;;6.90;6.20;;;;;;;;;;5113383;28;20451;-77
2023/03/15 01:01:08;;;;;;;8.03;6.13;;;;;;;;;;5114255;28;20449;-75
2023/03/15 01:03:39;;;;;;;7.33;5.67;;;;;;;;;;5113748;27;20477;-77
2023/03/15 01:06:07;;;;;;;6.93;6.20;;;;;;;;;;5114868;28;20455;-77
2023/03/15 01:08:41;;;;;;;6.20;5.00;;;;;;;;;;5115100;28;20463;-77
2023/03/15 01:11:15;;;;;;;10.27;5.60;;;;;;;;;;5115760;28;20473;-76
2023/03/15 01:13:49;;;;;;;8.23;4.90;;;;;;;;;;5115733;28;20455;-75
2023/03/15 01:16:20;;;;;;;5.10;4.67;;;;;;;;;;5116868;28;20569;-77
2023/03/15 01:18:57;;;;;;;8.17;4.90;;;;;;;;;;5115952;28;20921;-76
2023/03/15 01:21:29;;;;;;;6.07;5.10;;;;;;;;;;5114554;27;20507;-77
2023/03/15 01:24:07;;;;;;;6.87;4.40;;;;;;;;;;5115771;28;20821;-76
2023/03/15 01:26:44;;;;;;;5.13;4.00;;;;;;;;;;5116055;27;20794;-76
2023/03/15 01:29:34;;;;;;;5.13;4.50;;;;;;;;;;5117356;27;20596;-76
2023/03/15 01:32:10;;;;;;;8.50;4.10;;;;;;;;;;5117369;28;20522;-76
2023/03/15 01:37:35;;;;;;;5.37;3.70;;;;;;;;;;5118602;28;20464;-76
2023/03/15 01:43:45;;;;;;;5.03;3.37;;;;;;;;;;5142823;27;20430;-76
2023/03/15 01:49:18;;;;;;;4.63;3.47;;;;;;;;;;5141420;27;20502;-75
2023/03/15 01:51:51;;;;;;;6.87;3.97;;;;;;;;;;5146097;27;20445;-76
2023/03/15 01:54:23;;;;;;;4.20;3.60;;;;;;;;;;5146537;27;20466;-75
2023/03/15 01:56:56;;;;;;;7.93;4.00;;;;;;;;;;5147690;27;20472;-77
2023/03/15 01:59:35;;;;;;;5.30;2.97;;;;;;;;;;5149585;27;20465;-76
2023/03/15 02:02:13;;;;;;;7.47;3.20;;;;;;;;;;5149203;27;20462;-77
2023/03/15 02:10:39;;;;;;;4.43;3.00;;;;;;;;;;5138627;27;20497;-76
2023/03/15 02:13:16;;;;;;;3.67;2.93;;;;;;;;;;5138390;27;20438;-76
2023/03/15 02:15:52;;;;;;;7.27;2.70;;;;;;;;;;5137509;27;20500;-76
2023/03/15 02:18:38;;;;;;;7.17;3.47;;;;;;;;;;5138314;27;20468;-76
2023/03/15 02:21:15;;;;;;;4.73;3.80;;;;;;;;;;5137647;27;20445;-75
2023/03/15 02:24:01;;;;;;;6.37;2.50;;;;;;;;;;5137626;27;20461;-75
2023/03/15 02:26:44;;;;;;;5.13;2.80;;;;;;;;;;5137456;27;20442;-77
2023/03/15 02:29:17;;;;;;;3.73;3.00;;;;;;;;;;5137945;27;20905;-76
2023/03/15 02:31:50;;;;;;;3.60;2.47;;;;;;;;;;5137755;27;20537;-77
2023/03/15 02:34:26;;;;;;;2.50;2.30;;;;;;;;;;5137540;27;20473;-77
2023/03/15 02:37:01;;;;;;;2.57;2.37;;;;;;;;;;5137412;27;21121;-77
2023/03/15 02:39:39;;;;;;;3.27;2.40;;;;;;;;;;5137563;27;20532;-76
2023/03/15 02:42:11;;;;;;;2.80;2.13;;;;;;;;;;5137156;27;20840;-77
2023/03/15 02:44:56;;;;;;;2.97;2.07;;;;;;;;;;5136314;27;20484;-78
2023/03/15 02:47:35;;;;;;;6.67;2.30;;;;;;;;;;5135605;27;20473;-77
2023/03/15 02:50:09;;;;;;;3.40;2.10;;;;;;;;;;5135670;27;20973;-76
2023/03/15 02:52:53;;;;;;;11.70;2.57;;;;;;;;;;5135806;27;20461;-76
2023/03/15 02:55:33;;;;;;;4.57;2.90;;;;;;;;;;5136262;27;20485;-77
2023/03/15 02:58:13;;;;;;;3.30;2.80;;;;;;;;;;5115316;27;20500;-76
2023/03/15 03:01:00;;;;;;;5.30;2.67;;;;;;;;;;5115031;27;20446;-77
2023/03/15 03:03:44;;;;;;;4.37;1.90;;;;;;;;;;5092537;27;20538;-76
2023/03/15 03:06:20;;;;;;;2.60;2.40;;;;;;;;;;5116130;27;20669;-76
2023/03/15 03:08:56;;;;;;;5.80;2.37;;;;;;;;;;5115428;27;20484;-77
2023/03/15 03:11:44;;;;;;;5.47;1.83;;;;;;;;;;5115776;27;20449;-78
2023/03/15 03:14:24;;;;;;;6.57;1.93;;;;;;;;;;5116257;28;20450;-76
2023/03/15 03:19:51;;;;;;;3.57;2.10;;;;;;;;;;5123391;27;20451;-77
2023/03/15 03:22:23;;;;;;;2.63;1.83;;;;;;;;;;5137387;27;20472;-77
2023/03/15 03:25:03;;;;;;;5.83;2.20;;;;;;;;;;5142398;27;20497;-76
2023/03/15 03:27:38;;;;;;;6.03;1.77;;;;;;;;;;5142061;27;20456;-77
2023/03/15 03:30:10;;;;;;;5.07;2.40;;;;;;;;;;5139086;27;20449;-75
2023/03/15 03:32:54;;;;;;;5.70;2.30;;;;;;;;;;5140116;27;20525;-75
2023/03/15 03:35:43;;;;;;;3.93;2.63;;;;;;;;;;5138524;27;20545;-75
2023/03/15 03:41:04;;;;;;;5.00;2.63;;;;;;;;;;5128742;27;20454;-75
2023/03/15 03:43:38;;;;;;;4.47;2.33;;;;;;;;;;5139886;27;20501;-74
2023/03/15 03:46:19;;;;;;;5.00;2.33;;;;;;;;;;5143406;27;20507;-76
2023/03/15 03:48:52;;;;;;;4.13;2.50;;;;;;;;;;5142246;27;20450;-77
2023/03/15 03:51:26;;;;;;;3.50;2.77;;;;;;;;;;5142027;27;20494;-76
2023/03/15 03:56:50;;;;;;;4.17;2.80;;;;;;;;;;5141065;27;20544;-76
2023/03/15 03:59:22;;;;;;;4.10;2.60;;;;;;;;;;5140671;27;20434;-77
2023/03/15 04:02:26;;;;;;;8.90;2.90;;;;;;;;;;5140778;27;20458;-77
2023/03/15 04:08:00;;;;;;;3.00;2.63;;;;;;;;;;5130016;27;20423;-77
2023/03/15 04:10:48;;;;;;;3.03;2.70;;;;;;;;;;5142575;27;20519;-75
2023/03/15 04:13:28;;;;;;;7.70;3.00;;;;;;;;;;5078760;28;20441;-76
2023/03/15 04:16:13;;;;;;;4.83;2.80;;;;;;;;;;5138910;27;20469;-75
2023/03/15 04:18:55;;;;;;;5.43;3.07;;;;;;;;;;5141916;27;20450;-75
2023/03/15 04:21:46;;;;;;;2.47;2.27;;;;;;;;;;5142162;27;20450;-76
2023/03/15 04:24:19;;;;;;;3.63;2.93;;;;;;;;;;5141964;27;20473;-76
2023/03/15 04:27:05;;;;;;;6.10;3.57;;;;;;;;;;5141021;27;20466;-76
2023/03/15 04:32:34;;;;;;;3.40;2.90;;;;;;;;;;5137827;27;20640;-76
2023/03/15 04:35:07;;;;;;;4.10;3.70;;;;;;;;;;5141364;27;20469;-77
2023/03/15 04:37:41;;;;;;;5.83;3.30;;;;;;;;;;5141084;27;20501;-76
2023/03/15 04:40:28;;;;;;;3.63;3.17;;;;;;;;;;5141979;27;20454;-77
2023/03/15 04:43:11;;;;;;;4.10;3.77;;;;;;;;;;5140304;27;20450;-76
2023/03/15 04:45:48;;;;;;;4.50;3.63;;;;;;;;;;5138704;27;20441;-76
2023/03/15 04:48:18;;;;;;;5.90;4.43;;;;;;;;;;5137444;27;20473;-76
2023/03/15 04:51:03;;;;;;;6.33;4.00;;;;;;;;;;5138674;27;20941;-76
2023/03/15 04:53:32;;;;;;;6.70;3.30;;;;;;;;;;5135951;27;20481;-76
2023/03/15 04:56:07;;;;;;;4.17;3.77;;;;;;;;;;5134410;27;20587;-76
2023/03/15 04:58:40;;;;;;;3.90;3.43;;;;;;;;;;5134890;27;20532;-77
2023/03/15 05:01:10;;;;;;;7.93;4.00;;;;;;;;;;5134926;27;20457;-77
2023/03/15 05:03:38;;;;;;;4.23;3.50;;;;;;;;;;5134852;27;20461;-77
2023/03/15 05:06:08;;;;;;;8.63;3.83;;;;;;;;;;5138702;27;20438;-77
2023/03/15 05:08:39;;;;;;;4.40;4.00;;;;;;;;;;5142613;27;20445;-77
2023/03/15 05:11:16;;;;;;;7.70;5.10;;;;;;;;;;5142024;27;20467;-76
2023/03/15 05:13:47;;;;;;;7.07;3.87;;;;;;;;;;5139811;27;20842;-77
2023/03/15 05:16:19;;;;;;;4.20;3.77;;;;;;;;;;5137997;27;21024;-76
2023/03/15 05:19:06;;;;;;;4.93;3.67;;;;;;;;;;5119359;28;20999;-77
2023/03/15 05:21:41;;;;;;;6.53;4.60;;;;;;;;;;5119374;27;20458;-76
2023/03/15 05:24:25;;;;;;;9.87;4.73;;;;;;;;;;5134785;27;20480;-75
2023/03/15 05:26:56;;;;;;;12.17;3.90;;;;;;;;;;5138920;27;20426;-76
2023/03/15 05:29:27;;;;;;;8.80;4.00;;;;;;;;;;5139683;27;20457;-77
2023/03/15 05:32:03;;;;;;;5.07;3.80;;;;;;;;;;5138576;27;20434;-77
2023/03/15 05:34:41;;;;;;;4.43;3.90;;;;;;;;;;5137369;27;20481;-77
2023/03/15 05:37:16;;;;;;;7.77;4.37;;;;;;;;;;5140026;27;20473;-77
2023/03/15 05:39:58;;;;;;;6.93;4.13;;;;;;;;;;5138083;27;20447;-76
2023/03/15 05:42:32;;;;;;;8.43;4.13;;;;;;;;;;5137422;27;20456;-76
2023/03/15 05:45:02;;;;;;;9.07;4.40;;;;;;;;;;5137016;27;20546;-77
2023/03/15 05:47:39;;;;;;;6.07;3.93;;;;;;;;;;5137290;27;20446;-77
2023/03/15 05:50:08;;;;;;;5.30;4.53;;;;;;;;;;5136464;27;20541;-77
2023/03/15 05:52:40;;;;;;;8.83;4.27;;;;;;;;;;5136600;27;20969;-76
2023/03/15 05:55:08;;;;;;;8.40;4.50;;;;;;;;;;5136012;27;20500;-77
2023/03/15 05:57:45;;;;;;;7.87;5.07;;;;;;;;;;5135124;27;20465;-76
2023/03/15 06:00:15;;;;;;;7.43;5.57;;;;;;;;;;5135766;27;20457;-76
2023/03/15 06:02:56;;;;;;;6.10;5.50;;;;;;;;;;5136485;27;20445;-77
2023/03/15 06:05:34;;;;;;;7.03;4.57;;;;;;;;;;5137900;27;20534;-76
2023/03/15 06:08:13;;;;;;;9.10;5.43;;;;;;;;;;5139141;27;20499;-77
2023/03/15 06:10:44;;;;;;;8.40;5.00;;;;;;;;;;5139232;27;20978;-77
2023/03/15 06:13:23;;;;;;;10.13;4.60;;;;;;;;;;5138441;27;20450;-76
2023/03/15 06:16:09;;;;;;;8.60;4.83;;;;;;;;;;5138193;27;20944;-77
2023/03/15 06:18:56;;;;;;;5.50;4.47;;;;;;;;;;5116349;27;20439;-76
2023/03/15 06:24:27;;;;;;;6.33;4.90;;;;;;;;;;5128487;27;20470;-78
2023/03/15 06:26:59;;;;;;;7.97;5.10;;;;;;;;;;5119390;27;20443;-77
2023/03/15 06:29:28;;;;;;;7.50;4.70;;;;;;;;;;5120422;27;20491;-76
2023/03/15 06:32:02;;;;;;;7.60;4.57;;;;;;;;;;5123077;27;20449;-77
2023/03/15 06:34:33;;;;;;;6.47;4.43;;;;;;;;;;5123202;27;20984;-76
2023/03/15 06:37:32;;;;;;;7.13;4.73;;;;;;;;;;5123380;28;20877;-77
2023/03/15 06:40:12;;;;;;;6.13;4.60;;;;;;;;;;5138940;27;20449;-77
2023/03/15 06:42:48;;;;;;;6.17;4.50;;;;;;;;;;5139186;27;20824;-77
2023/03/15 06:45:26;;;;;;;6.67;4.73;;;;;;;;;;5136423;27;20468;-77
2023/03/15 06:48:03;;;;;;;8.60;4.70;;;;;;;;;;5136839;27;20446;-78
2023/03/15 06:50:49;;;;;;;6.70;5.80;;;;;;;;;;5137234;27;20518;-76
2023/03/15 06:53:44;;;;;;;8.90;6.83;;;;;;;;;;5134967;27;20953;-77
2023/03/15 06:56:40;;;;;;;13.17;9.50;;;;;;;;;;5135282;27;20567;-77
2023/03/15 06:59:13;;;;;;;9.83;5.87;;;;;;;;;;5111337;27;20453;-77
2023/03/15 07:01:44;;;;;;;8.10;5.30;;;;;;;;;;5137498;27;20453;-77
2023/03/15 07:04:12;;;;;;;5.10;4.30;;;;;;;;;;5138207;27;20532;-77
2023/03/15 07:06:46;;;;;;;6.03;4.10;;;;;;;;;;5138674;27;20449;-77
2023/03/15 07:09:13;;;;;;;7.83;4.50;;;;;;;;;;5137854;27;20453;-77
2023/03/15 07:11:45;;;;;;;5.20;4.60;;;;;;;;;;5137850;27;20418;-79
2023/03/15 07:14:16;;;;;;;7.93;4.97;;;;;;;;;;5137498;27;20474;-77
2023/03/15 07:16:51;;;;;;;5.67;3.83;;;;;;;;;;5137384;27;20854;-78
2023/03/15 07:19:22;;;;;;;6.80;4.70;;;;;;;;;;5136461;27;20430;-77
2023/03/15 07:21:50;;;;;;;12.17;3.80;;;;;;;;;;5136751;27;20512;-79
2023/03/15 07:24:21;;;;;;;5.00;4.07;;;;;;;;;;5136896;27;20462;-78
2023/03/15 07:26:53;;;;;;;5.23;3.43;;;;;;;;;;5138131;27;20442;-77
2023/03/15 07:29:27;;;;;;;4.87;3.97;;;;;;;;;;5137582;27;20446;-78
2023/03/15 07:31:59;;;;;;;8.40;3.60;;;;;;;;;;5137466;27;20446;-77
2023/03/15 07:34:29;;;;;;;6.40;3.70;;;;;;;;;;5138238;27;20493;-78
2023/03/15 07:39:59;;;;;;;5.30;3.40;;;;;;;;;;5097022;28;20451;-77
2023/03/15 07:45:32;;;;;;;;;;;;;;;;;;;;;
2023/03/15 07:48:01;;;;;;;4.03;3.40;;;;;;;;;;5145286;27;20441;-78
2023/03/15 07:50:32;;;;;;;4.70;3.17;;;;;;;;;;5147283;27;20449;-78
2023/03/15 07:53:07;;;;;;;4.13;3.20;;;;;;;;;;5144593;27;20440;-78
2023/03/15 07:55:38;;;;;;;6.87;3.00;;;;;;;;;;5137270;27;20421;-78
2023/03/15 07:58:06;;;;;;;4.60;2.80;;;;;;;;;;5135951;27;20513;-77
2023/03/15 08:00:53;;;;;;;7.90;3.30;;;;;;;;;;5136483;27;20521;-77
2023/03/15 08:03:26;;;;;;;4.13;2.90;;;;;;;;;;5135938;27;20453;-78
2023/03/15 08:06:01;;;;;;;3.20;2.90;;;;;;;;;;5135945;27;20499;-77
2023/03/15 08:08:30;;;;;;;5.70;3.13;;;;;;;;;;5135789;27;20480;-77
2023/03/15 08:11:15;;;;;;;3.43;2.90;;;;;;;;;;5134931;27;20474;-77
2023/03/15 08:13:55;;;;;;;6.97;2.97;;;;;;;;;;5133935;27;20477;-77
2023/03/15 08:16:36;;;;;;;5.80;2.90;;;;;;;;;;5136399;27;20458;-77
2023/03/15 08:19:25;;;;;;;3.03;2.50;;;;;;;;;;5133792;27;20499;-77
2023/03/15 08:21:56;;;;;;;7.83;3.20;;;;;;;;;;5126765;27;20433;-77
2023/03/15 08:24:38;;;;;;;5.37;2.70;;;;;;;;;;5155306;27;20465;-78
2023/03/15 08:27:16;;;;;;;6.23;2.70;;;;;;;;;;5155634;27;20437;-78
2023/03/15 08:30:08;;;;;;;;;;;;;;;;;;;;;
2023/03/15 08:32:43;;;;;;;4.43;2.40;;;;;;;;;;5155907;27;20412;-77
2023/03/15 08:35:20;;;;;;;3.47;3.17;;;;;;;;;;5156275;27;20472;-77
2023/03/15 08:38:04;;;;;;;6.00;3.40;;;;;;;;;;5156503;27;20468;-79
2023/03/15 08:40:49;;;;;;;5.20;2.73;;;;;;;;;;5157358;27;20449;-78
2023/03/15 08:46:20;;;;;;;5.90;2.67;;;;;;;;;;5155948;27;20440;-77
2023/03/15 08:52:02;;;;;;;3.60;2.77;;;;;;;;;;5158840;27;20440;-79
2023/03/15 08:54:49;;;;;;;6.33;3.30;;;;;;;;;;5159640;27;20437;-78
2023/03/15 09:00:27;;;;;;;4.43;2.30;;;;;;;;;;5157103;27;20903;-78
2023/03/15 09:03:21;;;;;;;10.47;3.87;;;;;;;;;;5160174;27;20448;-77
2023/03/15 09:06:05;;;;;;;4.73;2.93;;;;;;;;;;5160071;27;20525;-77
2023/03/15 09:08:48;;;;;;;3.80;2.40;;;;;;;;;;5159075;27;20436;-78
2023/03/15 09:11:35;;;;;;;5.27;2.13;;;;;;;;;;5159739;27;20444;-78
2023/03/15 09:14:14;;;;;;;7.80;2.27;;;;;;;;;;5161709;27;20480;-78
2023/03/15 09:16:45;;;;;;;4.40;2.70;;;;;;;;;;5163155;27;20781;-78
2023/03/15 09:19:13;;;;;;;2.53;2.30;;;;;;;;;;5164279;27;20937;-77
2023/03/15 09:21:50;;;;;;;6.77;2.50;;;;;;;;;;5164447;27;20449;-79
2023/03/15 09:24:22;;;;;;;6.90;2.73;;;;;;;;;;5167316;27;20532;-78
2023/03/15 09:27:01;;;;;;;3.07;2.20;;;;;;;;;;5163520;27;20459;-78
2023/03/15 09:29:32;;;;;;;4.03;2.43;;;;;;;;;;5164138;27;20477;-78
2023/03/15 09:32:04;;;;;;;3.80;2.63;;;;;;;;;;5164730;27;20447;-77
2023/03/15 09:34:44;;;;;;;3.33;2.10;;;;;;;;;;5162872;27;20971;-77
2023/03/15 09:37:17;;;;;;;2.10;1.63;;;;;;;;;;5163992;27;20479;-77
2023/03/15 09:40:10;;;;;;;5.90;2.37;;;;;;;;;;5164065;27;20473;-76
2023/03/15 09:42:49;;;;;;;5.43;1.80;;;;;;;;;;5165276;27;20520;-77
2023/03/15 09:45:26;;;;;;;7.60;1.90;;;;;;;;;;5163957;27;20521;-78
2023/03/15 09:48:05;;;;;;;3.37;1.87;;;;;;;;;;5163272;27;20445;-77
2023/03/15 09:50:50;;;;;;;3.00;1.90;;;;;;;;;;5163533;27;20540;-78
2023/03/15 09:56:40;;;;;;;2.70;1.80;;;;;;;;;;5160326;27;20452;-77
2023/03/15 10:05:24;;;;;;;3.30;3.00;;;;;;;;;;5165091;27;20453;-78
2023/03/15 10:07:58;;;;;;;2.93;2.00;;;;;;;;;;5164585;27;20437;-76
2023/03/15 10:10:36;;;;;;;2.03;1.60;;;;;;;;;;5165363;27;20593;-76
2023/03/15 10:13:15;;;;;;;3.70;2.20;;;;;;;;;;5166976;27;20491;-76
2023/03/15 10:15:48;;;;;;;3.00;1.90;;;;;;;;;;5164659;27;20433;-78
2023/03/15 10:18:40;;;;;;;2.90;1.90;;;;;;;;;;5144370;27;20466;-76
2023/03/15 10:21:14;;;;;;;2.63;1.90;;;;;;;;;;5141431;27;20454;-77
2023/03/15 10:23:55;;;;;;;3.63;1.77;;;;;;;;;;5144462;27;20486;-76
2023/03/15 10:26:37;;;;;;;2.17;1.43;;;;;;;;;;5143492;27;20446;-77
2023/03/15 10:29:13;;;;;;;2.07;1.60;;;;;;;;;;5141728;27;20462;-77
2023/03/15 10:31:51;;;;;;;2.27;1.90;;;;;;;;;;5141319;27;20442;-77
2023/03/15 10:34:28;;;;;;;2.47;1.50;;;;;;;;;;5141756;27;20466;-76
2023/03/15 10:37:05;;;;;;;3.53;1.67;;;;;;;;;;5138621;27;20457;-78
2023/03/15 10:39:45;;;;;;;5.40;1.70;;;;;;;;;;5138917;27;20502;-79
2023/03/15 10:45:21;;;;;;;1.80;1.30;;;;;;;;;;5137905;27;20450;-77
2023/03/15 10:47:57;;;;;;;2.80;1.70;;;;;;;;;;5137449;27;20450;-76
2023/03/15 10:50:32;;;;;;;4.97;2.33;;;;;;;;;;5138018;27;20553;-77
2023/03/15 10:53:02;;;;;;;3.60;2.13;;;;;;;;;;5138427;27;20445;-75
2023/03/15 10:55:37;;;;;;;5.63;1.90;;;;;;;;;;5139411;27;20473;-75
2023/03/15 10:58:34;;;;;;;6.63;1.70;;;;;;;;;;5138031;27;20477;-78
2023/03/15 11:01:10;;;;;;;2.10;1.90;;;;;;;;;;5124698;27;20438;-77
2023/03/15 11:03:47;;;;;;;2.30;1.47;;;;;;;;;;5137887;27;20542;-77
2023/03/15 11:06:39;;;;;;;2.73;1.93;;;;;;;;;;5138945;27;20459;-78
2023/03/15 11:12:13;;;;;;;3.23;1.90;;;;;;;;;;5134848;27;20437;-77
2023/03/15 11:14:46;;;;;;;3.60;1.67;;;;;;;;;;5136919;27;20466;-78
2023/03/15 11:17:20;;;;;;;2.43;1.63;;;;;;;;;;5127010;27;20482;-76
2023/03/15 11:19:58;;;;;;;6.97;1.73;;;;;;;;;;5115285;27;20509;-77
2023/03/15 11:22:57;;;;;;;3.53;2.20;;;;;;;;;;5115667;27;20451;-76
2023/03/15 11:25:36;;;;;;;4.70;1.67;;;;;;;;;;5115068;27;20541;-77
2023/03/15 11:28:14;;;;;;;2.20;1.60;;;;;;;;;;5117031;27;20473;-77
2023/03/15 11:31:02;;;;;;;;;;;;;;;;;;;;;
2023/03/15 11:37:00;;;;;;;5.53;1.50;;;;;;;;;;5112708;27;20439;-77
2023/03/15 11:39:50;;;;;;;2.07;1.57;;;;;;;;;;5115295;27;20483;-76
2023/03/15 11:42:55;;;;;;;11.57;7.33;;;;;;;;;;5115427;27;20519;-77
2023/03/15 11:45:51;;;;;;;20.53;15.50;;;;;;;;;;5098854;28;20467;-77
2023/03/15 11:48:51;;;;;;;2.40;1.53;;;;;;;;;;5109036;27;20484;-78
2023/03/15 11:51:28;;;;;;;4.27;1.67;;;;;;;;;;5117841;27;20501;-77
2023/03/15 11:54:14;;;;;;;2.10;1.57;;;;;;;;;;5115560;27;20462;-78
2023/03/15 11:56:56;;;;;;;3.70;1.60;;;;;;;;;;5115817;27;20451;-77
2023/03/15 11:59:35;;;;;;;3.83;1.30;;;;;;;;;;5115900;27;20493;-77
2023/03/15 12:02:32;;;;;;;1.67;0.97;;;;;;;;;;5116524;27;20446;-77
2023/03/15 12:05:38;;;;;;;1.70;0.97;;;;;;;;;;5115644;28;20524;-77
2023/03/15 12:08:36;;;;;;;1.23;1.10;;;;;;;;;;5114948;27;20446;-76
2023/03/15 12:14:42;;;;;;;1.47;1.37;;;;;;;;;;5111265;27;20472;-78
2023/03/15 12:17:32;;;;;;;2.50;1.30;;;;;;;;;;5121042;27;20449;-76
2023/03/15 12:20:25;;;;;;;3.10;2.00;;;;;;;;;;5133637;27;20457;-76
2023/03/15 12:23:18;;;;;;;4.73;1.17;;;;;;;;;;5133600;27;20468;-77
2023/03/15 12:25:58;;;;;;;3.80;1.27;;;;;;;;;;5133962;27;20810;-77
2023/03/15 12:28:48;;;;;;;2.50;1.20;;;;;;;;;;5136112;27;20442;-77
2023/03/15 12:34:35;;;;;;;2.50;1.30;;;;;;;;;;5134859;27;20450;-77
2023/03/15 12:46:46;;;;;;;1.80;1.33;;;;;;;;;;5131002;27;20438;-75
2023/03/15 12:52:55;;;;;;;3.13;1.43;;;;;;;;;;5089614;27;20430;-76
2023/03/15 12:55:35;;;;;;;1.63;1.30;;;;;;;;;;5135219;27;20476;-77
2023/03/15 12:58:30;;;;;;;2.80;1.90;;;;;;;;;;5136103;28;20442;-75
2023/03/15 13:01:17;;;;;;;2.80;2.60;;;;;;;;;;5135851;27;20452;-76
2023/03/15 13:03:59;;;;;;;2.90;2.37;;;;;;;;;;5135696;27;20472;-76
2023/03/15 13:06:56;;;;;;;2.43;2.23;;;;;;;;;;5135727;27;20475;-79
2023/03/15 13:09:52;;;;;;;2.87;2.23;;;;;;;;;;5136172;27;20441;-78
2023/03/15 13:12:48;;;;;;;2.67;2.43;;;;;;;;;;5107746;27;20445;-76
2023/03/15 13:15:33;;;;;;;5.00;2.17;;;;;;;;;;5134847;27;20878;-76
2023/03/15 13:21:16;;;;;;;2.37;2.20;;;;;;;;;;5098194;27;20464;-76
2023/03/15 13:24:00;;;;;;;2.60;2.00;;;;;;;;;;5114413;27;20469;-77
2023/03/15 13:29:28;;;;;;;3.20;2.20;;;;;;;;;;5095318;28;20608;-77
2023/03/15 13:35:06;;;;;;;8.20;2.67;;;;;;;;;;5119910;27;20449;-76
2023/03/15 13:37:48;;;;;;;2.40;2.20;;;;;;;;;;5118456;28;20500;-78
2023/03/15 13:40:47;;;;;;;;;;;;;;;;;;;;;
2023/03/15 13:43:40;;;;;;;3.83;2.10;;;;;;;;;;5117505;28;20445;-75
2023/03/15 13:46:35;;;;;;;2.57;2.23;;;;;;;;;;5117189;27;20507;-77
2023/03/15 13:49:37;;;;;;;2.50;2.27;;;;;;;;;;5117752;27;20446;-76
2023/03/15 13:55:28;;;;;;;3.63;2.27;;;;;;;;;;5116356;27;20463;-77
2023/03/15 13:58:31;;;;;;;4.80;2.13;;;;;;;;;;5118798;27;20523;-76
2023/03/15 14:01:17;;;;;;;3.17;2.30;;;;;;;;;;5115684;27;20450;-78
2023/03/15 14:03:56;;;;;;;3.13;2.53;;;;;;;;;;5118096;27;20471;-76
2023/03/15 14:06:39;;;;;;;2.30;2.20;;;;;;;;;;5118095;27;20457;-76
2023/03/15 14:09:14;;;;;;;2.13;1.97;;;;;;;;;;5121837;27;20484;-76
2023/03/15 14:15:01;;;;;;;2.07;1.87;;;;;;;;;;5118594;27;20509;-77
2023/03/15 14:17:53;;;;;;;2.53;2.07;;;;;;;;;;5118408;27;20447;-78
2023/03/15 14:20:38;;;;;;;2.20;2.00;;;;;;;;;;5117280;27;20565;-77
2023/03/15 14:26:35;;;;;;;2.63;2.30;;;;;;;;;;5116317;28;20926;-77
2023/03/15 14:29:20;;;;;;;3.23;2.33;;;;;;;;;;5117918;27;20856;-75
2023/03/15 14:34:49;;;;;;;3.97;2.17;;;;;;;;;;5087718;27;20466;-76
2023/03/15 14:37:54;;;;;;;2.80;2.60;;;;;;;;;;5117298;27;20451;-76
2023/03/15 14:40:36;;;;;;;2.53;2.33;;;;;;;;;;5117781;27;20489;-77
2023/03/15 14:43:22;;;;;;;3.67;2.57;;;;;;;;;;5119042;28;20450;-76
2023/03/15 14:46:03;;;;;;;2.90;2.70;;;;;;;;;;5117826;27;20526;-77
2023/03/15 14:48:45;;;;;;;2.10;2.00;;;;;;;;;;5123749;27;20450;-76
2023/03/15 14:57:32;;;;;;;3.00;2.70;;;;;;;;;;5075349;28;20498;-75
2023/03/15 15:03:43;;;;;;;2.40;1.97;;;;;;;;;;5090141;27;20426;-74
2023/03/15 15:06:51;;;;;;;4.03;2.30;;;;;;;;;;5145930;27;20482;-75
2023/03/15 15:09:24;;;;;;;2.43;1.93;;;;;;;;;;5144195;27;20461;-75
2023/03/15 15:11:54;;;;;;;2.47;2.30;;;;;;;;;;5142779;27;20445;-74
2023/03/15 15:14:25;;;;;;;2.90;1.80;;;;;;;;;;5143354;27;20492;-75
2023/03/15 15:16:52;;;;;;;2.70;1.70;;;;;;;;;;5143117;27;20453;-76
2023/03/15 15:19:20;;;;;;;3.83;1.83;;;;;;;;;;5142565;27;20542;-75
2023/03/15 15:21:55;;;;;;;2.30;2.20;;;;;;;;;;5141923;27;20441;-74
2023/03/15 15:24:27;;;;;;;2.10;2.00;;;;;;;;;;5136701;27;20491;-74
2023/03/15 15:26:58;;;;;;;3.23;2.60;;;;;;;;;;5138145;27;20425;-75
2023/03/15 15:29:30;;;;;;;1.60;1.50;;;;;;;;;;5139382;27;20940;-74
2023/03/15 15:32:01;;;;;;;5.23;1.90;;;;;;;;;;5137225;27;20534;-73
2023/03/15 15:34:32;;;;;;;1.90;1.80;;;;;;;;;;5136492;27;20454;-74
2023/03/15 15:37:04;;;;;;;3.27;2.03;;;;;;;;;;5139875;27;20423;-75
2023/03/15 15:39:35;;;;;;;2.07;1.87;;;;;;;;;;5140548;27;20454;-74
2023/03/15 15:42:12;;;;;;;1.70;1.60;;;;;;;;;;5139701;27;20461;-74
2023/03/15 15:44:53;;;;;;;2.83;2.10;;;;;;;;;;5136263;27;20469;-76
2023/03/15 15:47:27;;;;;;;2.13;2.03;;;;;;;;;;5139265;27;20446;-75
2023/03/15 15:49:56;;;;;;;2.07;1.97;;;;;;;;;;5138591;27;20419;-76
2023/03/15 15:52:29;;;;;;;3.77;2.00;;;;;;;;;;5139107;27;21096;-75
2023/03/15 15:54:57;;;;;;;2.00;1.90;;;;;;;;;;5137936;27;20497;-74
2023/03/15 15:57:41;;;;;;;2.03;1.83;;;;;;;;;;5137965;27;20453;-76
2023/03/15 16:02:59;;;;;;;2.30;2.20;;;;;;;;;;5135440;27;20520;-76
2023/03/15 16:05:37;;;;;;;2.43;2.27;;;;;;;;;;5139195;27;20454;-75
2023/03/15 16:08:15;;;;;;;2.53;2.43;;;;;;;;;;5137817;27;21036;-76
2023/03/15 16:10:49;;;;;;;2.50;2.40;;;;;;;;;;5137234;27;20446;-76
2023/03/15 16:13:21;;;;;;;2.67;2.57;;;;;;;;;;5136826;27;20454;-76
2023/03/15 16:15:53;;;;;;;2.50;2.40;;;;;;;;;;5137953;27;20791;-75
2023/03/15 16:18:25;;;;;;;3.17;2.97;;;;;;;;;;5135857;27;20522;-76
2023/03/15 16:20:58;;;;;;;2.63;2.47;;;;;;;;;;5135636;27;20553;-75
2023/03/15 16:23:26;;;;;;;2.60;2.40;;;;;;;;;;5136430;27;20470;-75
2023/03/15 16:26:10;;;;;;;2.97;2.77;;;;;;;;;;5135470;27;20454;-76
2023/03/15 16:28:39;;;;;;;2.50;2.40;;;;;;;;;;5136160;27;20449;-76
2023/03/15 16:31:16;;;;;;;2.30;2.20;;;;;;;;;;5136897;27;20446;-77
2023/03/15 16:33:44;;;;;;;2.80;2.60;;;;;;;;;;5137708;27;20476;-76
2023/03/15 16:36:24;;;;;;;2.27;2.17;;;;;;;;;;5135694;27;20474;-76
2023/03/15 16:38:53;;;;;;;2.73;2.53;;;;;;;;;;5135691;27;20449;-77
2023/03/15 16:41:33;;;;;;;3.60;2.47;;;;;;;;;;5134393;27;20457;-77
2023/03/15 16:44:01;;;;;;;3.93;3.23;;;;;;;;;;5134542;27;20499;-77
2023/03/15 16:46:36;;;;;;;2.97;2.70;;;;;;;;;;5134367;27;20446;-76
2023/03/15 16:49:13;;;;;;;2.57;2.47;;;;;;;;;;5133556;27;20474;-76
2023/03/15 16:51:46;;;;;;;3.90;2.80;;;;;;;;;;5133474;27;20457;-76
2023/03/15 16:54:24;;;;;;;2.30;2.20;;;;;;;;;;5133588;27;21164;-75
2023/03/15 16:56:55;;;;;;;2.20;2.10;;;;;;;;;;5132473;27;20433;-76
2023/03/15 16:59:26;;;;;;;3.27;3.07;;;;;;;;;;5133294;27;20481;-76
2023/03/15 17:02:02;;;;;;;3.10;2.80;;;;;;;;;;5133153;27;20450;-76
2023/03/15 17:07:16;;;;;;;3.07;2.87;;;;;;;;;;5138412;27;20508;-77
2023/03/15 17:09:55;;;;;;;2.67;2.47;;;;;;;;;;5137910;27;20433;-75
2023/03/15 17:12:33;;;;;;;2.83;2.70;;;;;;;;;;5139559;27;20441;-75
2023/03/15 17:15:15;;;;;;;2.67;2.57;;;;;;;;;;5144162;27;20572;-75
2023/03/15 17:17:48;;;;;;;3.30;3.10;;;;;;;;;;5140661;27;20456;-75
2023/03/15 17:20:20;;;;;;;3.23;3.03;;;;;;;;;;5139881;27;20469;-76
2023/03/15 17:22:54;;;;;;;3.10;2.90;;;;;;;;;;5139468;27;20436;-75
2023/03/15 17:25:31;;;;;;;2.57;2.47;;;;;;;;;;5139011;27;20976;-75
2023/03/15 17:28:05;;;;;;;5.50;3.47;;;;;;;;;;5138940;27;20438;-76
2023/03/15 17:30:40;;;;;;;2.80;2.60;;;;;;;;;;5140412;27;20474;-77
2023/03/15 17:33:12;;;;;;;3.43;3.13;;;;;;;;;;5140414;27;20488;-78
2023/03/15 17:35:55;;;;;;;3.07;2.83;;;;;;;;;;5142973;27;20467;-78
2023/03/15 17:38:31;;;;;;;3.40;3.10;;;;;;;;;;5142983;27;20429;-79
2023/03/15 17:41:07;;;;;;;3.30;3.10;;;;;;;;;;5140634;27;20525;-78
2023/03/15 17:43:36;;;;;;;6.83;3.07;;;;;;;;;;5140597;27;20969;-78
2023/03/15 17:46:13;;;;;;;3.10;2.90;;;;;;;;;;5140705;27;20541;-78
2023/03/15 17:48:43;;;;;;;3.43;3.23;;;;;;;;;;5140875;27;20540;-79
2023/03/15 17:51:19;;;;;;;3.47;3.17;;;;;;;;;;5140377;27;20441;-78
2023/03/15 17:54:00;;;;;;;;;;;;;;;;;;;;;
2023/03/15 17:56:40;;;;;;;3.20;2.97;;;;;;;;;;5140355;27;20810;-76